SAZR/RSA METAR and TAF weather

Enter ICAO airport designator
Station Type Date Time Source
SAZR METAR 2021/07/17 18:10 UTC NOAA

SAZR 171810Z 23015G25KT CAVOK 12/M06 Q1023


Station Type Date Time Source
SAZR Decoded METAR 2021/07/17 18:10 UTC NOAA

Santa Rosa Aerodrome, Argentina (SAZR) 36-34S 064-16W 191M
Jul 17, 2021 - 02:10 PM EDT / 2021.07.17 1810 UTC
Wind: from the SW (230 degrees) at 17 MPH (15 KT) gusting to 29 MPH (25 KT):0
Visibility: greater than 7 mile(s):0
Temperature: 53 F (12 C)
Dew Point: 21 F (-6 C)
Relative Humidity: 27%
Pressure (altimeter): 30.21 in. Hg (1023 hPa)
ob: SAZR 171810Z 23015G25KT CAVOK 12/M06 Q1023
cycle: 18

Station Type Date Time Source
SAZR TAF 2021/07/29 00:06 UTC NOAA

TAF SAZR 292300Z 3000/3024 01010KT CAVOK TX19/3018Z TN02/3011Z
BECMG 3013/3015 35015KT

Example: see airport list